createdAt,value
2023-04-16T00:01:44.368Z,5.15
2023-04-16T00:04:21.095Z,5.75
2023-04-16T00:06:50.334Z,4.80
2023-04-16T00:09:20.758Z,4.38
2023-04-16T00:11:49.435Z,4.13
2023-04-16T00:14:17.908Z,3.95
2023-04-16T00:16:46.715Z,4.60
2023-04-16T00:19:17.284Z,4.90
2023-04-16T00:21:45.869Z,4.82
2023-04-16T00:24:14.924Z,3.92
2023-04-16T00:26:46.413Z,4.65
2023-04-16T00:29:15.544Z,4.40
2023-04-16T00:31:46.379Z,4.80
2023-04-16T00:34:14.869Z,4.50
2023-04-16T00:36:45.259Z,4.75
2023-04-16T00:39:13.717Z,4.45
2023-04-16T00:41:44.034Z,5.15
2023-04-16T00:44:15.247Z,5.22
2023-04-16T00:46:44.261Z,5.03
2023-04-16T00:49:13.818Z,4.50
2023-04-16T00:51:42.402Z,5.18
2023-04-16T00:54:11.216Z,6.43
2023-04-16T00:56:41.790Z,5.07
2023-04-16T00:59:11.238Z,5.10
2023-04-16T01:01:40.904Z,5.13
2023-04-16T01:04:15.150Z,4.20
2023-04-16T01:06:46.732Z,5.78
2023-04-16T01:09:17.861Z,5.22
2023-04-16T01:11:48.666Z,6.25
2023-04-16T01:14:16.983Z,5.85
2023-04-16T01:16:45.926Z,6.05
2023-04-16T01:19:14.928Z,7.00
2023-04-16T01:21:46.647Z,7.05
2023-04-16T01:24:15.020Z,7.90
2023-04-16T01:26:44.932Z,7.80
2023-04-16T01:29:17.592Z,9.27
2023-04-16T01:31:47.185Z,8.45
2023-04-16T01:34:25.811Z,7.75
2023-04-16T01:36:56.857Z,7.78
2023-04-16T01:39:25.665Z,8.73
2023-04-16T01:41:54.960Z,7.38
2023-04-16T01:44:23.468Z,7.82
2023-04-16T01:46:54.751Z,7.03
2023-04-16T01:49:23.432Z,7.53
2023-04-16T01:51:51.820Z,6.20
2023-04-16T01:54:20.527Z,7.32
2023-04-16T01:56:49.371Z,7.43
2023-04-16T01:59:18.447Z,7.47
2023-04-16T02:01:47.052Z,7.57
2023-04-16T02:04:15.979Z,6.57
2023-04-16T02:06:44.917Z,7.55
2023-04-16T02:09:16.331Z,8.40
2023-04-16T02:11:45.762Z,7.60
2023-04-16T02:14:14.890Z,6.97
2023-04-16T02:16:44.423Z,8.10
2023-04-16T02:19:20.238Z,8.13
2023-04-16T02:21:54.929Z,7.07
2023-04-16T02:24:23.820Z,8.10
2023-04-16T02:26:52.958Z,8.50
2023-04-16T02:29:22.679Z,8.85
2023-04-16T02:31:59.660Z,8.07
2023-04-16T02:34:31.579Z,6.10
2023-04-16T02:37:02.355Z,6.53
2023-04-16T02:39:31.995Z,6.35
2023-04-16T02:42:02.496Z,6.85
2023-04-16T02:44:32.512Z,5.90
2023-04-16T02:47:03.393Z,6.30
2023-04-16T02:49:32.272Z,6.47
2023-04-16T02:52:00.596Z,6.57
2023-04-16T02:54:30.647Z,6.72
2023-04-16T02:57:02.311Z,5.80
2023-04-16T02:59:30.980Z,5.93
2023-04-16T03:02:05.266Z,4.47
2023-04-16T03:04:34.987Z,6.55
2023-04-16T03:07:03.306Z,4.70
2023-04-16T03:09:34.176Z,5.47
2023-04-16T03:12:03.245Z,5.95
2023-04-16T03:14:36.076Z,6.00
2023-04-16T03:17:07.104Z,5.35
2023-04-16T03:19:39.316Z,6.05
2023-04-16T03:22:08.082Z,6.03
2023-04-16T03:24:39.667Z,5.20
2023-04-16T03:27:09.406Z,5.38
2023-04-16T03:29:42.168Z,6.03
2023-04-16T03:32:12.542Z,5.72
2023-04-16T03:34:41.218Z,5.75
2023-04-16T03:37:12.067Z,7.15
2023-04-16T03:39:41.534Z,6.75
2023-04-16T03:42:14.418Z,6.68
2023-04-16T03:44:42.994Z,5.35
2023-04-16T03:47:11.360Z,6.25
2023-04-16T03:49:40.442Z,6.18
2023-04-16T03:52:08.997Z,5.65
2023-04-16T03:54:42.117Z,6.47
2023-04-16T03:57:24.349Z,5.65
2023-04-16T03:59:55.952Z,6.28
2023-04-16T04:02:26.584Z,6.68
2023-04-16T04:04:57.746Z,6.57
2023-04-16T04:07:30.791Z,6.03
2023-04-16T04:10:03.338Z,6.80
2023-04-16T04:12:41.289Z,6.93
2023-04-16T04:15:10.250Z,5.50
2023-04-16T04:17:47.978Z,5.80
2023-04-16T04:20:16.607Z,5.97
2023-04-16T04:22:47.104Z,5.88
2023-04-16T04:25:17.436Z,6.65
2023-04-16T04:27:46.181Z,6.28
2023-04-16T04:30:14.754Z,5.72
2023-04-16T04:32:54.035Z,6.18
2023-04-16T04:35:23.526Z,7.20
2023-04-16T04:37:52.767Z,6.60
2023-04-16T04:40:22.754Z,7.07
2023-04-16T04:42:53.607Z,7.95
2023-04-16T04:45:25.644Z,5.97
2023-04-16T04:47:57.887Z,7.00
2023-04-16T04:50:31.425Z,8.52
2023-04-16T04:52:59.754Z,7.07
2023-04-16T04:55:29.176Z,6.75
2023-04-16T04:58:00.026Z,6.93
2023-04-16T05:00:32.926Z,7.88
2023-04-16T05:03:20.301Z,7.28
2023-04-16T05:05:51.748Z,5.78
2023-04-16T05:08:20.099Z,7.32
2023-04-16T05:10:48.336Z,7.10
2023-04-16T05:13:16.904Z,7.05
2023-04-16T05:15:46.109Z,7.50
2023-04-16T05:18:15.833Z,7.80
2023-04-16T05:20:44.250Z,8.02
2023-04-16T05:23:12.971Z,6.85
2023-04-16T05:25:43.926Z,9.02
2023-04-16T05:28:13.416Z,7.88
2023-04-16T05:30:42.267Z,7.43
2023-04-16T05:33:27.901Z,7.68
2023-04-16T05:35:56.342Z,6.13
2023-04-16T05:38:24.813Z,7.13
2023-04-16T05:40:54.942Z,6.85
2023-04-16T05:43:23.298Z,7.22
2023-04-16T05:45:52.802Z,7.32
2023-04-16T05:48:23.520Z,8.80
2023-04-16T05:50:52.366Z,7.13
2023-04-16T05:53:21.292Z,7.63
2023-04-16T05:55:52.778Z,7.63
2023-04-16T05:58:21.606Z,7.35
2023-04-16T06:00:52.842Z,8.23
2023-04-16T06:03:35.808Z,8.40
2023-04-16T06:06:08.823Z,7.85
2023-04-16T06:08:42.497Z,9.20
2023-04-16T06:11:10.823Z,8.07
2023-04-16T06:13:43.128Z,7.38
2023-04-16T06:16:14.587Z,8.18
2023-04-16T06:18:47.533Z,7.57
2023-04-16T06:21:16.552Z,8.95
2023-04-16T06:23:46.259Z,8.18
2023-04-16T06:26:15.007Z,7.55
2023-04-16T06:28:44.989Z,8.13
2023-04-16T06:31:15.891Z,8.45
2023-04-16T06:33:50.812Z,7.53
2023-04-16T06:36:21.507Z,7.82
2023-04-16T06:38:52.653Z,6.82
2023-04-16T06:41:22.728Z,8.10
2023-04-16T06:43:51.508Z,7.60
2023-04-16T06:46:20.401Z,7.50
2023-04-16T06:48:49.097Z,7.72
2023-04-16T06:51:17.844Z,8.35
2023-04-16T06:53:48.339Z,7.60
2023-04-16T06:56:16.904Z,8.18
2023-04-16T06:58:45.942Z,7.68
2023-04-16T07:01:14.393Z,8.20
2023-04-16T07:03:46.909Z,7.10
2023-04-16T07:06:16.026Z,7.35
2023-04-16T07:08:47.518Z,8.38
2023-04-16T07:11:16.339Z,8.32
2023-04-16T07:13:47.578Z,7.97
2023-04-16T07:16:16.434Z,8.32
2023-04-16T07:18:45.302Z,8.43
2023-04-16T07:21:14.009Z,8.85
2023-04-16T07:23:43.074Z,8.02
2023-04-16T07:26:12.547Z,7.70
2023-04-16T07:28:41.325Z,8.77
2023-04-16T07:31:10.795Z,8.27
2023-04-16T07:33:44.314Z,7.88
2023-04-16T07:36:12.806Z,8.35
2023-04-16T07:38:42.525Z,8.05
2023-04-16T07:41:11.505Z,8.68
2023-04-16T07:43:39.821Z,9.10
2023-04-16T07:46:08.181Z,8.43
2023-04-16T07:48:39.336Z,8.80
2023-04-16T07:51:08.007Z,9.23
2023-04-16T07:53:38.794Z,7.97
2023-04-16T07:56:07.202Z,8.70
2023-04-16T07:58:39.184Z,8.90
2023-04-16T08:01:07.596Z,9.10
2023-04-16T08:03:44.153Z,8.88
2023-04-16T08:06:15.690Z,9.18
2023-04-16T08:08:45.349Z,8.93
2023-04-16T08:11:16.132Z,8.68
2023-04-16T08:13:45.993Z,8.85
2023-04-16T08:16:14.653Z,9.82
2023-04-16T08:18:46.681Z,10.13
2023-04-16T08:21:16.212Z,8.75
2023-04-16T08:23:49.155Z,9.27
2023-04-16T08:26:18.652Z,9.40
2023-04-16T08:28:49.350Z,9.27
2023-04-16T08:31:18.880Z,9.18
2023-04-16T08:33:50.034Z,9.60
2023-04-16T08:36:19.247Z,8.60
2023-04-16T08:38:48.900Z,9.18
2023-04-16T08:41:18.601Z,9.13
2023-04-16T08:43:49.794Z,9.98
2023-04-16T08:46:23.280Z,10.40
2023-04-16T08:48:59.601Z,8.98
2023-04-16T08:51:31.138Z,9.43
2023-04-16T08:54:09.630Z,8.75
2023-04-16T08:56:38.802Z,8.13
2023-04-16T08:59:10.730Z,8.60
2023-04-16T09:01:41.609Z,9.18
2023-04-16T09:04:10.833Z,9.75
2023-04-16T09:06:41.676Z,8.88
2023-04-16T09:09:10.600Z,8.43
2023-04-16T09:11:40.065Z,8.93
2023-04-16T09:14:10.598Z,8.82
2023-04-16T09:16:41.077Z,8.45
2023-04-16T09:19:10.137Z,9.30
2023-04-16T09:21:40.012Z,9.27
2023-04-16T09:24:09.663Z,8.10
2023-04-16T09:26:39.651Z,9.45
2023-04-16T09:29:09.771Z,8.75
2023-04-16T09:31:39.102Z,9.63
2023-04-16T09:34:08.569Z,9.38
2023-04-16T09:36:38.049Z,8.27
2023-04-16T09:39:06.599Z,9.10
2023-04-16T09:41:39.543Z,8.98
2023-04-16T09:44:08.635Z,8.68
2023-04-16T09:46:43.801Z,8.35
2023-04-16T09:49:15.453Z,8.10
2023-04-16T09:51:47.228Z,8.93
2023-04-16T09:54:16.230Z,8.70
2023-04-16T09:56:46.110Z,15.13
2023-04-16T09:59:21.173Z,10.40
2023-04-16T10:01:57.280Z,9.90
2023-04-16T10:04:46.405Z,8.32
2023-04-16T10:07:16.329Z,9.60
2023-04-16T10:09:44.892Z,7.97
2023-04-16T10:12:13.842Z,8.05
2023-04-16T10:14:43.010Z,9.13
2023-04-16T10:17:14.565Z,8.23
2023-04-16T10:19:45.388Z,9.65
2023-04-16T10:22:20.148Z,7.95
2023-04-16T10:24:50.021Z,8.32
2023-04-16T10:27:19.868Z,8.18
2023-04-16T10:29:50.633Z,8.00
2023-04-16T10:32:21.854Z,7.40
2023-04-16T10:34:53.931Z,7.75
2023-04-16T10:37:30.289Z,8.55
2023-04-16T10:40:01.940Z,8.23
2023-04-16T10:42:42.893Z,8.05
2023-04-16T10:45:21.866Z,8.10
2023-04-16T10:47:50.163Z,7.35
2023-04-16T10:50:21.764Z,7.28
2023-04-16T10:53:11.358Z,7.63
2023-04-16T10:55:41.311Z,9.52
2023-04-16T10:58:39.029Z,7.95
2023-04-16T11:01:12.291Z,7.07
2023-04-16T11:03:45.424Z,7.80
2023-04-16T11:06:17.755Z,7.78
2023-04-16T11:08:54.576Z,6.57
2023-04-16T11:11:28.558Z,7.45
2023-04-16T11:13:57.966Z,7.95
2023-04-16T11:16:28.748Z,7.97
2023-04-16T11:18:57.621Z,7.32
2023-04-16T11:21:26.735Z,8.25
2023-04-16T11:23:55.159Z,7.15
2023-04-16T11:26:28.726Z,7.30
2023-04-16T11:28:57.531Z,6.90
2023-04-16T11:31:27.535Z,7.07
2023-04-16T11:33:56.726Z,6.97
2023-04-16T11:36:27.393Z,7.97
2023-04-16T11:39:02.194Z,7.75
2023-04-16T11:41:34.089Z,7.85
2023-04-16T11:44:17.446Z,6.90
2023-04-16T11:46:48.615Z,6.25
2023-04-16T11:49:17.801Z,6.88
2023-04-16T11:51:48.202Z,6.47
2023-04-16T11:54:21.147Z,6.97
2023-04-16T11:56:50.400Z,6.70
2023-04-16T11:59:21.194Z,6.18
2023-04-16T12:01:55.648Z,6.28
2023-04-16T12:04:29.332Z,6.03
2023-04-16T12:07:11.333Z,5.45
2023-04-16T12:09:43.483Z,5.65
2023-04-16T12:12:32.545Z,5.40
2023-04-16T12:15:03.733Z,5.45
2023-04-16T12:17:35.667Z,5.10
2023-04-16T12:20:16.163Z,5.40
2023-04-16T12:22:49.356Z,5.32
2023-04-16T12:25:18.655Z,5.75
2023-04-16T12:27:53.009Z,5.68
2023-04-16T12:30:26.125Z,4.93
2023-04-16T12:33:19.662Z,5.38
2023-04-16T12:35:48.861Z,5.53
2023-04-16T12:38:17.478Z,6.03
2023-04-16T12:40:46.172Z,5.43
2023-04-16T12:43:14.704Z,5.63
2023-04-16T12:45:43.173Z,5.25
2023-04-16T12:48:11.634Z,5.78
2023-04-16T12:50:40.586Z,6.10
2023-04-16T12:53:09.352Z,5.53
2023-04-16T12:55:38.314Z,4.82
2023-04-16T12:58:07.194Z,6.07
2023-04-16T13:00:38.937Z,5.50
2023-04-16T13:03:24.668Z,5.07
2023-04-16T13:05:53.640Z,6.15
2023-04-16T13:08:23.063Z,5.45
2023-04-16T13:10:51.531Z,6.00
2023-04-16T13:13:21.098Z,6.32
2023-04-16T13:15:52.522Z,5.47
2023-04-16T13:18:21.990Z,6.57
2023-04-16T13:20:50.398Z,6.30
2023-04-16T13:23:18.933Z,6.60
2023-04-16T13:25:48.435Z,5.25
2023-04-16T13:28:19.198Z,5.40
2023-04-16T13:30:47.780Z,5.82
2023-04-16T13:33:29.430Z,5.82
2023-04-16T13:35:58.831Z,5.85
2023-04-16T13:38:27.812Z,6.32
2023-04-16T13:40:56.051Z,6.32
2023-04-16T13:43:24.816Z,6.47
2023-04-16T13:45:53.995Z,6.03
2023-04-16T13:48:22.621Z,6.45
2023-04-16T13:50:51.335Z,6.63
2023-04-16T13:53:20.590Z,6.38
2023-04-16T13:55:49.593Z,6.35
2023-04-16T13:58:18.116Z,6.22
2023-04-16T14:00:47.673Z,6.68
2023-04-16T14:03:36.295Z,6.18
2023-04-16T14:06:07.719Z,6.93
2023-04-16T14:08:36.452Z,7.30
2023-04-16T14:11:06.331Z,6.80
2023-04-16T14:13:35.308Z,6.32
2023-04-16T14:16:04.488Z,6.40
2023-04-16T14:18:34.249Z,6.18
2023-04-16T14:21:05.074Z,6.97
2023-04-16T14:23:33.877Z,6.18
2023-04-16T14:26:02.697Z,6.75
2023-04-16T14:28:35.587Z,6.38
2023-04-16T14:31:07.598Z,6.78
2023-04-16T14:33:36.171Z,5.60
2023-04-16T14:36:05.289Z,6.72
2023-04-16T14:38:34.188Z,6.32
2023-04-16T14:41:05.152Z,6.75
2023-04-16T14:43:35.749Z,6.18
2023-04-16T14:46:06.303Z,5.18
2023-04-16T14:48:35.254Z,5.45
2023-04-16T14:51:03.522Z,5.55
2023-04-16T14:53:36.072Z,6.43
2023-04-16T14:56:05.014Z,5.90
2023-04-16T14:58:37.307Z,5.70
2023-04-16T15:01:08.854Z,5.10
2023-04-16T15:03:37.996Z,5.88
2023-04-16T15:06:06.723Z,5.28
2023-04-16T15:08:36.808Z,5.40
2023-04-16T15:11:07.510Z,5.45
2023-04-16T15:13:38.559Z,5.65
2023-04-16T15:16:06.929Z,5.03
2023-04-16T15:18:35.536Z,5.07
2023-04-16T15:21:04.679Z,4.57
2023-04-16T15:23:34.936Z,4.78
2023-04-16T15:26:03.667Z,5.00
2023-04-16T15:28:33.420Z,4.88
2023-04-16T15:31:02.531Z,4.65
2023-04-16T15:33:31.162Z,4.30
2023-04-16T15:35:59.691Z,4.90
2023-04-16T15:38:29.774Z,4.78
2023-04-16T15:41:01.583Z,4.93
2023-04-16T15:43:31.503Z,4.57
2023-04-16T15:46:02.984Z,4.07
2023-04-16T15:48:34.097Z,4.38
2023-04-16T15:51:02.640Z,4.60
2023-04-16T15:53:32.204Z,4.22
2023-04-16T15:56:01.535Z,4.10
2023-04-16T15:58:31.345Z,5.53
2023-04-16T16:01:04.211Z,5.13
2023-04-16T16:03:52.076Z,4.57
2023-04-16T16:06:23.960Z,4.20
2023-04-16T16:08:52.777Z,4.53
2023-04-16T16:11:21.308Z,4.38
2023-04-16T16:13:50.005Z,3.90
2023-04-16T16:16:19.544Z,3.88
2023-04-16T16:18:48.771Z,3.85
2023-04-16T16:21:20.667Z,4.30
2023-04-16T16:23:49.076Z,4.38
2023-04-16T16:26:18.279Z,3.80
2023-04-16T16:28:50.188Z,3.80
2023-04-16T16:31:18.827Z,4.15
2023-04-16T16:33:50.943Z,5.13
2023-04-16T16:36:19.383Z,6.95
2023-04-16T16:38:48.430Z,6.57
2023-04-16T17:49:37.071Z,6.88
2023-04-16T17:52:05.936Z,8.50
2023-04-16T17:54:34.587Z,8.25
2023-04-16T17:57:03.224Z,7.57
2023-04-16T17:59:31.497Z,7.07
2023-04-16T18:02:00.734Z,7.65
2023-04-16T18:04:29.545Z,7.55
2023-04-16T18:06:58.204Z,7.78
2023-04-16T18:09:27.539Z,7.95
2023-04-16T18:11:58.446Z,8.77
2023-04-16T18:14:30.159Z,9.00
2023-04-16T18:17:03.068Z,8.57
2023-04-16T18:22:04.004Z,7.22
2023-04-16T18:24:33.382Z,8.00
2023-04-16T18:27:01.918Z,7.82
2023-04-16T18:29:33.873Z,8.75
2023-04-16T18:32:04.543Z,8.88
2023-04-16T18:34:35.057Z,8.13
2023-04-16T18:37:04.480Z,7.93
2023-04-16T18:39:33.954Z,7.53
2023-04-16T18:42:05.210Z,8.40
2023-04-16T18:44:33.577Z,7.93
2023-04-16T18:47:02.320Z,9.10
2023-04-16T18:49:31.747Z,6.90
2023-04-16T18:52:00.259Z,7.75
2023-04-16T18:54:31.157Z,7.93
2023-04-16T18:57:02.043Z,7.18
2023-04-16T18:59:34.664Z,6.90
2023-04-16T19:02:05.923Z,6.57
2023-04-16T19:04:38.564Z,6.93
2023-04-16T19:07:09.144Z,6.80
2023-04-16T19:09:40.865Z,5.72
2023-04-16T19:12:14.572Z,5.45
2023-04-16T19:14:43.095Z,5.38
2023-04-16T19:17:14.288Z,6.10
2023-04-16T19:19:45.855Z,6.53
2023-04-16T19:22:14.269Z,6.35
2023-04-16T19:24:42.753Z,5.68
2023-04-16T19:27:13.692Z,5.80
2023-04-16T19:29:43.560Z,6.28
2023-04-16T19:32:13.995Z,6.22
2023-04-16T19:34:43.236Z,6.70
2023-04-16T19:37:11.665Z,6.88
2023-04-16T19:39:40.219Z,7.18
2023-04-16T19:42:08.623Z,5.50
2023-04-16T19:44:42.391Z,6.30
2023-04-16T19:47:10.995Z,6.35
2023-04-16T19:49:43.588Z,6.15
2023-04-16T19:52:14.095Z,6.10
2023-04-16T19:54:45.307Z,6.00
2023-04-16T19:57:14.752Z,7.25
2023-04-16T19:59:43.292Z,5.93
2023-04-16T20:02:11.821Z,7.05
2023-04-16T20:04:42.879Z,7.68
2023-04-16T20:07:13.783Z,6.43
2023-04-16T20:09:42.575Z,6.85
2023-04-16T20:12:11.252Z,5.88
2023-04-16T20:14:43.965Z,5.53
2023-04-16T20:17:19.508Z,5.40
2023-04-16T20:19:49.552Z,5.55
2023-04-16T20:22:21.033Z,6.00
2023-04-16T20:24:55.074Z,5.85
2023-04-16T20:27:26.136Z,5.53
2023-04-16T20:29:55.367Z,5.80
2023-04-16T20:32:28.112Z,6.35
2023-04-16T20:34:57.369Z,5.72
2023-04-16T20:37:29.441Z,6.15
2023-04-16T20:40:00.697Z,5.97
2023-04-16T20:42:37.767Z,6.18
2023-04-16T20:45:07.208Z,6.43
2023-04-16T20:47:44.133Z,7.35
2023-04-16T20:50:13.662Z,6.68
2023-04-16T20:52:44.217Z,6.60
2023-04-16T20:55:13.230Z,7.13
2023-04-16T20:57:42.205Z,7.03
2023-04-16T21:00:12.355Z,6.90
2023-04-16T21:02:51.881Z,7.25
2023-04-16T21:05:21.349Z,7.68
2023-04-16T21:07:50.237Z,8.27
2023-04-16T21:10:20.439Z,7.32
2023-04-16T21:12:53.852Z,7.60
2023-04-16T21:15:22.308Z,7.88
2023-04-16T21:17:51.510Z,7.82
2023-04-16T21:20:22.772Z,7.32
2023-04-16T21:22:55.086Z,8.07
2023-04-16T21:25:26.628Z,8.77
2023-04-16T21:27:55.701Z,8.68
2023-04-16T21:30:24.409Z,7.13
2023-04-16T21:33:06.599Z,8.75
2023-04-16T21:35:35.861Z,8.50
2023-04-16T21:38:05.151Z,10.00
2023-04-16T21:40:34.153Z,9.40
2023-04-16T21:43:03.226Z,8.65
2023-04-16T21:45:31.953Z,8.98
2023-04-16T21:48:00.462Z,9.35
2023-04-16T21:50:33.071Z,8.73
2023-04-16T21:53:04.415Z,9.75
2023-04-16T21:55:35.910Z,9.18
2023-04-16T21:58:04.996Z,9.23
2023-04-16T22:00:33.783Z,8.75
2023-04-16T22:03:18.857Z,9.52
2023-04-16T22:05:47.324Z,10.95
2023-04-16T22:08:24.195Z,9.73
2023-04-16T22:10:59.988Z,8.63
2023-04-16T22:13:30.626Z,9.20
2023-04-16T22:18:33.651Z,8.45
2023-04-16T22:21:02.260Z,9.32
2023-04-16T22:23:31.938Z,9.95
2023-04-16T22:26:02.602Z,11.32
2023-04-16T22:28:32.308Z,10.23
2023-04-16T22:31:01.658Z,9.70
2023-04-16T22:33:32.352Z,8.40
2023-04-16T22:36:01.180Z,10.15
2023-04-16T22:38:31.545Z,10.02
2023-04-16T22:41:03.214Z,9.95
2023-04-16T22:43:37.043Z,10.55
2023-04-16T22:46:06.871Z,10.02
2023-04-16T22:48:38.900Z,9.98
2023-04-16T22:51:09.062Z,11.18
2023-04-16T22:53:38.112Z,10.02
2023-04-16T22:56:06.710Z,10.25
2023-04-16T22:58:37.117Z,9.98
2023-04-16T23:01:06.709Z,9.90
2023-04-16T23:03:44.392Z,10.20
2023-04-16T23:06:13.130Z,9.27
2023-04-16T23:08:42.309Z,10.00
2023-04-16T23:11:11.264Z,11.18
2023-04-16T23:13:39.761Z,10.13
2023-04-16T23:16:08.762Z,10.85
2023-04-16T23:18:37.754Z,10.48
2023-04-16T23:21:09.273Z,9.35
2023-04-16T23:24:03.448Z,10.63
2023-04-16T23:26:35.897Z,9.70
2023-04-16T23:29:09.134Z,10.03
2023-04-16T23:31:38.431Z,10.20
2023-04-16T23:34:06.866Z,11.18
2023-04-16T23:36:35.600Z,10.30
2023-04-16T23:39:04.488Z,11.15
2023-04-16T23:41:36.211Z,10.13
2023-04-16T23:44:05.105Z,10.95
2023-04-16T23:46:35.284Z,9.40
2023-04-16T23:49:03.703Z,11.30
2023-04-16T23:51:33.827Z,9.95
2023-04-16T23:54:02.980Z,10.50
2023-04-16T23:56:35.420Z,10.50
2023-04-16T23:59:04.023Z,12.25
